Time;durP1;ratioP1;P1;durP2;ratioP2;P2;SDS_P1;SDS_P2;PMS_P1;PMS_P2;Temp;Humidity;BMP_temperature;BMP_pressure;BME280_temperature;BME280_humidity;BME280_pressure;Samples;Min_cycle;Max_cycle;Signal;HPM_P1;HPM_P2
2021/10/18 00:00:53;;;;;;;10.43;8.67;;;;;;;3.03;97.65;96150.81;5078151;28;20635;-82
2021/10/18 00:03:19;;;;;;;8.90;8.00;;;;;;;3.08;97.54;96155.66;5078231;28;20223;-84
2021/10/18 00:05:45;;;;;;;9.40;7.93;;;;;;;3.07;97.43;96154.84;5077315;28;20180;-82
2021/10/18 00:08:10;;;;;;;12.07;9.27;;;;;;;3.12;97.26;96152.84;5077970;28;20256;-83
2021/10/18 00:10:35;;;;;;;11.07;8.17;;;;;;;3.16;97.39;96152.66;5096556;28;20203;-84
2021/10/18 00:13:01;;;;;;;10.70;9.27;;;;;;;3.17;97.81;96154.31;5078232;28;20199;-81
2021/10/18 00:15:26;;;;;;;12.73;9.13;;;;;;;3.19;97.39;96142.25;5095119;28;20178;-83
2021/10/18 00:17:52;;;;;;;11.20;8.73;;;;;;;3.22;97.50;96142.06;5077956;28;20269;-84
2021/10/18 00:20:17;;;;;;;14.67;9.00;;;;;;;3.26;97.47;96138.38;5078577;28;20713;-82
2021/10/18 00:22:43;;;;;;;11.10;7.77;;;;;;;3.29;97.39;96140.78;5078229;28;20186;-82
2021/10/18 00:25:08;;;;;;;10.77;8.70;;;;;;;3.33;97.27;96145.66;5078025;28;20622;-82
2021/10/18 00:27:34;;;;;;;12.50;8.70;;;;;;;3.36;97.52;96144.66;5078909;28;20165;-83
2021/10/18 00:29:59;;;;;;;10.63;8.73;;;;;;;3.37;97.26;96142.00;5078793;28;20194;-82
2021/10/18 00:32:25;;;;;;;10.83;8.43;;;;;;;3.38;97.30;96153.09;5078446;28;20175;-83
2021/10/18 00:34:50;;;;;;;11.43;8.63;;;;;;;3.45;97.60;96143.31;5042621;28;20189;-83
2021/10/18 00:37:15;;;;;;;11.80;9.10;;;;;;;3.37;97.19;96144.56;5054666;28;20669;-81
2021/10/18 00:39:40;;;;;;;13.07;8.40;;;;;;;3.34;97.11;96147.31;5040870;28;20571;-83
2021/10/18 00:42:06;;;;;;;12.77;8.73;;;;;;;3.35;97.39;96148.94;5040137;28;20176;-82
2021/10/18 00:44:32;;;;;;;10.33;8.43;;;;;;;3.36;97.38;96154.94;5040366;28;20208;-83
2021/10/18 00:46:58;;;;;;;10.97;8.13;;;;;;;3.45;97.17;96159.53;5058020;28;20181;-82
2021/10/18 00:49:23;;;;;;;12.70;9.00;;;;;;;3.44;96.74;96157.84;5057394;28;20201;-83
2021/10/18 00:51:49;;;;;;;11.17;8.70;;;;;;;3.39;97.05;96155.56;5053753;28;20181;-82
2021/10/18 00:54:14;;;;;;;12.43;8.90;;;;;;;3.41;97.28;96165.75;5040531;28;20173;-82
2021/10/18 00:56:40;;;;;;;11.43;8.33;;;;;;;3.42;96.88;96154.56;5057410;28;20250;-81
2021/10/18 00:59:05;;;;;;;12.13;8.23;;;;;;;3.37;97.00;96156.59;5040865;28;20204;-82
2021/10/18 01:01:31;;;;;;;11.30;8.23;;;;;;;3.35;96.81;96155.81;5041148;28;20185;-82
2021/10/18 01:03:57;;;;;;;10.90;8.40;;;;;;;3.32;96.41;96154.28;5057020;28;20208;-82
2021/10/18 01:06:22;;;;;;;10.13;8.03;;;;;;;3.27;96.55;96153.72;5040883;28;20180;-83
2021/10/18 01:08:48;;;;;;;10.43;7.50;;;;;;;3.21;96.23;96143.81;5041103;28;20258;-82
2021/10/18 01:11:13;;;;;;;10.03;7.53;;;;;;;3.19;96.38;96153.34;5057619;28;20541;-84
2021/10/18 01:13:38;;;;;;;13.03;8.63;;;;;;;3.16;96.53;96153.50;5056862;28;20184;-82
2021/10/18 01:16:06;;;;;;;10.93;7.70;;;;;;;3.10;96.57;96157.25;5040351;28;20184;-81
2021/10/18 01:18:31;;;;;;;11.07;8.10;;;;;;;3.06;96.82;96154.94;5057102;28;20826;-83
2021/10/18 01:20:56;;;;;;;10.40;8.07;;;;;;;3.04;96.56;96149.06;5040474;28;20184;-83
2021/10/18 01:23:22;;;;;;;8.97;6.83;;;;;;;2.96;96.46;96146.94;5040038;28;20725;-84
2021/10/18 01:25:47;;;;;;;9.13;7.50;;;;;;;2.95;96.48;96152.16;5039981;28;20633;-83
2021/10/18 01:28:12;;;;;;;14.47;8.53;;;;;;;2.91;96.56;96150.66;5034443;28;20294;-83
2021/10/18 01:30:38;;;;;;;9.77;7.40;;;;;;;2.88;96.23;96149.09;5020278;28;20338;-83
2021/10/18 01:33:03;;;;;;;12.13;8.07;;;;;;;2.86;96.16;96145.81;5037027;28;20172;-83
2021/10/18 01:35:29;;;;;;;10.70;7.37;;;;;;;2.81;96.05;96148.59;5036481;28;20200;-81
2021/10/18 01:37:54;;;;;;;12.63;7.10;;;;;;;2.83;96.22;96146.00;5036825;28;20177;-82
2021/10/18 01:40:21;;;;;;;11.20;7.27;;;;;;;2.78;96.43;96147.97;5036464;28;20569;-83
2021/10/18 01:42:47;;;;;;;8.40;7.27;;;;;;;2.80;95.94;96138.44;5020265;28;20639;-82
2021/10/18 01:45:15;;;;;;;10.33;7.80;;;;;;;2.79;96.21;96140.19;5035691;28;20169;-82
2021/10/18 01:47:40;;;;;;;9.50;7.20;;;;;;;2.83;96.36;96136.56;5020077;28;20647;-83
2021/10/18 01:50:10;;;;;;;10.67;7.23;;;;;;;2.88;96.11;96138.84;5036666;28;20255;-82
2021/10/18 01:52:36;;;;;;;8.70;7.17;;;;;;;2.93;96.35;96147.13;5036661;28;20230;-83
2021/10/18 01:55:02;;;;;;;11.00;7.43;;;;;;;2.98;96.01;96145.09;5036278;28;20174;-82
2021/10/18 01:57:27;;;;;;;10.40;7.67;;;;;;;3.03;96.24;96144.84;5054819;28;20176;-81
2021/10/18 01:59:52;;;;;;;10.00;7.60;;;;;;;3.06;96.25;96136.97;5036160;28;20209;-81
2021/10/18 02:02:17;;;;;;;10.80;7.40;;;;;;;3.11;96.18;96140.13;5020366;28;20177;-81
2021/10/18 02:04:43;;;;;;;11.80;8.13;;;;;;;3.16;96.66;96142.41;5035981;28;20197;-82
2021/10/18 02:07:08;;;;;;;11.43;8.20;;;;;;;3.21;96.65;96148.13;5020235;28;20181;-82
2021/10/18 02:09:33;;;;;;;11.13;7.73;;;;;;;3.27;96.58;96147.75;5036095;28;20206;-81
2021/10/18 02:11:59;;;;;;;8.70;7.30;;;;;;;3.33;96.20;96137.13;5036461;28;20246;-83
2021/10/18 02:14:24;;;;;;;9.80;7.10;;;;;;;3.35;96.82;96135.28;5019488;28;20184;-82
2021/10/18 02:16:49;;;;;;;8.97;7.83;;;;;;;3.36;96.24;96135.22;5019956;28;20182;-83
2021/10/18 02:19:15;;;;;;;11.60;8.30;;;;;;;3.40;96.41;96133.28;5019666;28;20200;-83
2021/10/18 02:21:40;;;;;;;11.10;8.47;;;;;;;3.45;96.62;96135.59;5019881;28;20253;-83
2021/10/18 02:24:05;;;;;;;10.20;7.53;;;;;;;3.48;96.55;96140.56;5035600;28;20971;-83
2021/10/18 02:26:30;;;;;;;10.73;8.33;;;;;;;3.48;96.69;96133.66;5036889;28;20217;-83
2021/10/18 02:28:57;;;;;;;8.97;7.57;;;;;;;3.47;95.88;96133.75;5036557;28;20197;-82
2021/10/18 02:31:22;;;;;;;9.93;7.63;;;;;;;3.48;96.46;96127.72;5053238;28;20242;-82
2021/10/18 02:33:47;;;;;;;10.67;7.27;;;;;;;3.46;96.02;96130.38;5019409;28;20662;-83
2021/10/18 02:36:13;;;;;;;9.50;7.67;;;;;;;3.41;95.93;96127.25;5036458;28;20231;-83
2021/10/18 02:38:39;;;;;;;9.30;7.20;;;;;;;3.36;95.98;96131.84;5019635;28;20689;-83
2021/10/18 02:41:05;;;;;;;9.47;6.57;;;;;;;3.29;95.75;96140.78;5035429;28;20177;-82
2021/10/18 02:43:30;;;;;;;9.00;7.27;;;;;;;3.20;95.20;96149.03;5036093;28;20301;-82
2021/10/18 02:45:56;;;;;;;8.13;6.83;;;;;;;3.11;96.25;96148.63;5019778;28;20212;-83
2021/10/18 02:48:21;;;;;;;12.03;7.07;;;;;;;3.09;95.73;96144.47;5019995;28;20293;-83
2021/10/18 02:50:46;;;;;;;11.20;8.03;;;;;;;3.01;95.85;96149.25;5036350;28;20181;-82
2021/10/18 02:53:12;;;;;;;10.03;6.57;;;;;;;2.97;95.84;96147.75;5019849;28;20182;-83
2021/10/18 02:55:37;;;;;;;10.40;7.17;;;;;;;2.94;96.18;96135.13;5035537;28;20183;-84
2021/10/18 02:58:02;;;;;;;10.47;7.17;;;;;;;2.89;95.91;96134.53;5019108;28;20234;-82
2021/10/18 03:00:28;;;;;;;9.40;7.33;;;;;;;2.86;96.11;96140.69;5020197;28;20220;-82
2021/10/18 03:02:53;;;;;;;7.53;6.17;;;;;;;2.84;96.05;96129.69;5019814;28;20668;-82
2021/10/18 03:05:18;;;;;;;9.13;6.90;;;;;;;2.74;95.98;96129.38;5019099;28;20469;-83
2021/10/18 03:07:44;;;;;;;9.00;6.97;;;;;;;2.68;96.28;96131.44;5054205;28;20195;-84
2021/10/18 03:10:10;;;;;;;9.00;6.80;;;;;;;2.64;96.60;96142.78;5036759;28;20212;-84
2021/10/18 03:12:35;;;;;;;9.20;7.13;;;;;;;2.59;96.26;96144.78;5054308;28;20184;-82
2021/10/18 03:15:03;;;;;;;9.60;6.63;;;;;;;2.52;96.70;96139.97;5018932;28;20188;-82
2021/10/18 03:17:28;;;;;;;9.27;6.90;;;;;;;2.49;96.38;96141.91;5035564;28;20181;-83
2021/10/18 03:19:53;;;;;;;8.50;6.67;;;;;;;2.47;96.55;96136.84;5035752;28;20576;-83
2021/10/18 03:22:18;;;;;;;10.53;6.90;;;;;;;2.48;96.17;96142.81;5019874;28;20205;-82
2021/10/18 03:24:44;;;;;;;8.80;6.67;;;;;;;2.42;96.28;96151.66;5018851;28;20290;-82
2021/10/18 03:27:10;;;;;;;8.63;6.13;;;;;;;2.38;96.47;96147.56;5036014;28;20227;-82
2021/10/18 03:29:35;;;;;;;8.07;6.87;;;;;;;2.36;96.39;96151.16;5019468;28;20227;-83
2021/10/18 03:32:00;;;;;;;7.60;6.77;;;;;;;2.34;96.21;96153.78;5036036;28;20595;-83
2021/10/18 03:34:26;;;;;;;10.63;7.73;;;;;;;2.31;96.74;96161.66;5035574;28;20184;-83
2021/10/18 03:36:51;;;;;;;9.20;7.60;;;;;;;2.28;96.38;96165.19;5035913;28;20213;-83
2021/10/18 03:39:16;;;;;;;12.20;8.13;;;;;;;2.27;96.37;96162.72;5036096;28;20207;-83
2021/10/18 03:41:42;;;;;;;10.67;6.80;;;;;;;2.30;96.16;96165.13;5051808;28;20195;-85
2021/10/18 03:44:07;;;;;;;10.90;7.37;;;;;;;2.30;96.40;96170.25;5035128;28;20270;-81
2021/10/18 03:46:32;;;;;;;10.60;7.20;;;;;;;2.33;96.03;96170.09;5036591;28;20279;-82
2021/10/18 03:48:58;;;;;;;9.30;7.20;;;;;;;2.30;96.18;96165.13;5053984;28;20462;-81
2021/10/18 03:51:24;;;;;;;9.00;6.73;;;;;;;2.30;96.36;96165.13;5020072;28;20231;-86
2021/10/18 03:53:49;;;;;;;9.83;7.40;;;;;;;2.30;96.20;96167.69;5035520;28;20179;-83
2021/10/18 03:56:15;;;;;;;8.03;6.97;;;;;;;2.29;96.28;96176.28;5035818;28;20272;-85
2021/10/18 03:58:40;;;;;;;11.33;8.07;;;;;;;2.30;96.53;96179.66;5036003;28;20200;-85
2021/10/18 04:01:09;;;;;;;9.47;7.80;;;;;;;2.32;96.60;96178.69;5035864;28;20646;-85
2021/10/18 04:03:35;;;;;;;10.90;8.40;;;;;;;2.33;96.35;96176.94;5019506;28;20682;-82
2021/10/18 04:06:01;;;;;;;8.30;7.43;;;;;;;2.32;95.80;96175.31;5018837;28;20174;-83
2021/10/18 04:08:28;;;;;;;13.17;7.87;;;;;;;2.33;96.08;96182.91;5037672;28;20251;-82
2021/10/18 04:10:53;;;;;;;10.40;7.43;;;;;;;2.31;96.30;96171.91;5024446;28;20183;-84
2021/10/18 04:13:18;;;;;;;9.90;8.07;;;;;;;2.30;96.10;96184.78;5039502;28;20189;-84
2021/10/18 04:15:44;;;;;;;10.50;8.30;;;;;;;2.28;95.98;96185.69;5022129;28;20186;-83
2021/10/18 04:18:09;;;;;;;13.33;7.87;;;;;;;2.25;96.09;96193.56;5056199;28;20204;-82
2021/10/18 04:20:34;;;;;;;10.50;7.70;;;;;;;2.18;95.71;96192.22;5040026;28;20558;-82
2021/10/18 04:22:59;;;;;;;11.47;8.67;;;;;;;2.22;95.75;96187.78;5023204;28;20178;-84
2021/10/18 04:25:25;;;;;;;12.60;9.83;;;;;;;2.16;96.14;96196.59;5021459;28;20725;-84
2021/10/18 04:27:50;;;;;;;13.80;10.37;;;;;;;2.16;96.32;96196.59;5039509;28;20534;-84
2021/10/18 04:30:15;;;;;;;11.50;10.07;;;;;;;2.16;95.84;96200.91;5040070;28;20188;-85
2021/10/18 04:32:41;;;;;;;11.57;8.37;;;;;;;2.16;96.30;96213.72;5039796;28;20178;-84
2021/10/18 04:35:06;;;;;;;11.40;9.17;;;;;;;2.12;96.41;96204.50;5039006;28;20519;-85
2021/10/18 04:37:32;;;;;;;11.77;8.97;;;;;;;2.11;96.41;96211.38;5039545;28;20249;-85
2021/10/18 04:39:57;;;;;;;9.60;7.97;;;;;;;2.10;96.33;96214.84;5040565;28;20213;-83
2021/10/18 04:42:22;;;;;;;11.50;8.33;;;;;;;2.11;96.09;96211.38;5022970;28;20181;-85
2021/10/18 04:44:48;;;;;;;13.17;7.97;;;;;;;2.10;96.11;96217.41;5039006;28;20259;-84
2021/10/18 04:47:13;;;;;;;10.47;7.60;;;;;;;2.13;96.24;96211.31;5023392;28;20178;-84
2021/10/18 04:49:38;;;;;;;9.73;7.70;;;;;;;2.09;96.08;96214.94;5040067;28;20611;-85
2021/10/18 04:52:04;;;;;;;10.13;7.67;;;;;;;2.05;96.10;96214.28;5023711;28;20232;-84
2021/10/18 04:54:29;;;;;;;9.73;7.03;;;;;;;2.09;95.74;96208.06;5039048;28;20181;-83
2021/10/18 04:56:54;;;;;;;9.37;7.30;;;;;;;2.06;95.60;96218.50;5038819;28;20173;-83
2021/10/18 04:59:20;;;;;;;10.97;7.87;;;;;;;2.07;96.11;96222.72;5038827;28;20677;-82
2021/10/18 05:01:45;;;;;;;9.70;7.27;;;;;;;2.01;95.81;96225.56;5022110;28;20170;-84
2021/10/18 05:04:10;;;;;;;10.17;7.37;;;;;;;1.97;95.89;96227.47;5039550;28;20209;-82
2021/10/18 05:06:35;;;;;;;8.73;6.90;;;;;;;1.94;96.01;96226.78;5022848;28;20188;-84
2021/10/18 05:09:01;;;;;;;7.87;6.90;;;;;;;1.98;95.76;96229.13;5039616;28;20206;-83
2021/10/18 05:11:26;;;;;;;9.43;6.97;;;;;;;2.09;95.19;96231.13;5022646;28;20177;-83
2021/10/18 05:13:51;;;;;;;7.20;6.43;;;;;;;2.06;95.70;96236.44;5047056;28;20180;-85
2021/10/18 05:16:17;;;;;;;8.17;6.00;;;;;;;2.05;94.64;96233.94;5031304;28;20203;-83
2021/10/18 05:18:42;;;;;;;6.27;5.37;;;;;;;1.93;95.08;96236.22;5037358;28;20213;-83
2021/10/18 05:21:07;;;;;;;7.67;5.97;;;;;;;1.84;95.48;96241.81;5036710;28;20179;-83
2021/10/18 05:23:33;;;;;;;7.70;6.10;;;;;;;1.79;95.55;96238.66;5020339;28;20201;-82
2021/10/18 05:25:59;;;;;;;6.97;5.77;;;;;;;1.73;95.51;96244.09;5038390;28;20648;-82
2021/10/18 05:28:24;;;;;;;7.43;5.83;;;;;;;1.64;95.57;96244.53;5037988;28;20194;-85
2021/10/18 05:30:49;;;;;;;7.47;6.00;;;;;;;1.66;96.04;96247.84;5037839;28;20184;-85
2021/10/18 05:33:15;;;;;;;8.93;6.40;;;;;;;1.61;95.74;96247.28;5038443;28;20220;-84
2021/10/18 05:35:40;;;;;;;8.47;6.47;;;;;;;1.62;95.83;96248.91;5038394;28;20621;-84
2021/10/18 05:38:06;;;;;;;7.63;6.27;;;;;;;1.62;95.83;96242.06;5041436;28;20201;-84
2021/10/18 05:40:32;;;;;;;10.47;7.80;;;;;;;1.66;96.05;96240.16;5047729;28;20178;-84
2021/10/18 05:42:57;;;;;;;10.00;8.07;;;;;;;1.70;96.55;96244.25;5033579;28;20202;-85
2021/10/18 05:45:22;;;;;;;9.80;7.37;;;;;;;1.74;96.43;96242.34;5031365;28;20185;-86
2021/10/18 05:47:57;;;;;;;12.53;8.03;;;;;;;1.77;96.21;96250.72;5033658;28;20185;-86
2021/10/18 05:50:28;;;;;;;11.57;6.83;;;;;;;1.79;96.29;96245.53;5051340;28;20176;-84
2021/10/18 05:52:54;;;;;;;9.37;7.10;;;;;;;1.82;95.92;96237.69;5075222;28;20211;-84
2021/10/18 05:55:20;;;;;;;9.00;6.80;;;;;;;1.83;96.14;96250.41;5068306;28;20207;-86
2021/10/18 05:57:57;;;;;;;10.20;7.83;;;;;;;1.86;95.75;96252.81;5058000;28;20211;-85
2021/10/18 06:00:23;;;;;;;9.60;7.00;;;;;;;1.83;95.46;96255.53;5074271;28;20176;-85
2021/10/18 06:02:49;;;;;;;9.37;7.00;;;;;;;1.84;95.96;96252.03;5075686;28;20284;-83
2021/10/18 06:05:15;;;;;;;12.97;7.83;;;;;;;1.85;95.42;96252.88;5075660;28;20525;-84
2021/10/18 06:07:40;;;;;;;8.57;6.50;;;;;;;1.89;95.43;96259.50;5061025;28;20177;-85
2021/10/18 06:10:07;;;;;;;9.03;7.07;;;;;;;1.90;95.87;96262.00;5067814;28;20197;-85
2021/10/18 06:12:32;;;;;;;8.60;7.30;;;;;;;1.95;95.00;96261.78;5074875;28;20180;-85
2021/10/18 06:14:58;;;;;;;8.23;6.47;;;;;;;1.96;94.87;96273.66;5066002;28;20248;-83
2021/10/18 06:17:23;;;;;;;10.27;7.40;;;;;;;1.97;95.23;96278.72;5057894;28;20272;-85
2021/10/18 06:19:48;;;;;;;7.70;6.23;;;;;;;1.97;94.81;96278.72;5071000;28;20192;-83
2021/10/18 06:22:13;;;;;;;10.57;6.47;;;;;;;1.97;94.54;96288.13;5085013;28;20172;-84
2021/10/18 06:24:39;;;;;;;8.63;6.87;;;;;;;2.02;94.37;96280.19;5076133;28;20188;-84
2021/10/18 06:27:04;;;;;;;9.70;6.80;;;;;;;2.10;94.90;96286.59;5077072;28;20169;-86
2021/10/18 06:29:31;;;;;;;9.73;7.13;;;;;;;2.14;94.79;96277.88;5075996;28;20534;-84
2021/10/18 06:31:56;;;;;;;9.50;6.70;;;;;;;2.26;94.61;96278.94;5059142;28;20184;-82
2021/10/18 06:34:21;;;;;;;9.77;7.33;;;;;;;2.36;95.19;96282.69;5074584;28;20173;-81
2021/10/18 06:36:46;;;;;;;8.77;6.57;;;;;;;2.59;94.42;96290.94;5075823;28;20173;-81
2021/10/18 06:39:12;;;;;;;8.70;6.07;;;;;;;2.52;94.04;96291.25;5075291;28;20207;-84
2021/10/18 06:41:37;;;;;;;7.70;5.77;;;;;;;2.59;94.52;96285.81;5072562;28;20173;-83
2021/10/18 06:44:03;;;;;;;7.50;5.60;;;;;;;2.63;94.65;96290.66;5068464;28;20253;-83
2021/10/18 06:46:28;;;;;;;7.33;6.20;;;;;;;2.69;95.05;96292.09;5038176;28;20182;-82
2021/10/18 06:48:53;;;;;;;8.07;6.03;;;;;;;2.74;94.93;96297.78;5074190;28;20225;-83
2021/10/18 06:51:19;;;;;;;8.33;6.53;;;;;;;2.75;95.61;96307.16;5026722;28;20322;-83
2021/10/18 06:53:46;;;;;;;10.30;6.20;;;;;;;2.95;95.09;96294.09;5043497;28;20674;-84
2021/10/18 06:56:12;;;;;;;10.10;6.57;;;;;;;3.02;95.11;96300.56;5027219;28;20361;-81
2021/10/18 06:58:38;;;;;;;9.90;6.67;;;;;;;3.06;94.97;96302.03;5055282;28;20575;-80
2021/10/18 07:01:03;;;;;;;7.90;6.50;;;;;;;3.10;94.75;96302.72;5059543;28;20188;-82
2021/10/18 07:03:29;;;;;;;7.13;6.30;;;;;;;3.07;94.68;96302.84;5067633;28;20230;-82
2021/10/18 07:05:54;;;;;;;9.30;6.77;;;;;;;3.22;94.30;96308.91;5067875;28;20186;-82
2021/10/18 07:08:19;;;;;;;8.93;6.50;;;;;;;3.32;93.73;96307.47;5074510;28;20203;-81
2021/10/18 07:10:45;;;;;;;8.90;6.67;;;;;;;3.31;94.08;96314.34;5092538;28;20179;-81
2021/10/18 07:13:11;;;;;;;9.60;6.20;;;;;;;3.36;94.03;96319.25;5075117;28;20182;-83
2021/10/18 07:15:38;;;;;;;7.60;6.43;;;;;;;3.44;94.33;96318.78;5069521;28;20660;-81
2021/10/18 07:18:03;;;;;;;8.30;6.30;;;;;;;3.49;93.83;96314.25;5060510;28;20600;-81
2021/10/18 07:20:28;;;;;;;7.80;6.43;;;;;;;3.49;93.80;96311.69;5062887;28;20212;-81
2021/10/18 07:22:58;;;;;;;8.37;6.80;;;;;;;3.61;94.19;96309.22;5062871;28;20187;-82
2021/10/18 07:25:24;;;;;;;8.10;6.30;;;;;;;3.60;94.11;96315.28;5069437;28;20637;-81
2021/10/18 07:27:49;;;;;;;8.40;6.43;;;;;;;3.67;94.10;96326.88;5053662;28;20174;-81
2021/10/18 07:30:14;;;;;;;8.53;6.53;;;;;;;3.79;93.94;96330.47;5061905;28;20643;-83
2021/10/18 07:32:43;;;;;;;8.10;6.30;;;;;;;3.79;93.28;96327.91;5054998;28;20215;-81
2021/10/18 07:35:08;;;;;;;9.10;6.63;;;;;;;3.78;93.23;96328.81;5052825;28;20173;-83
2021/10/18 07:37:34;;;;;;;7.87;6.73;;;;;;;3.89;93.47;96326.50;5051361;28;20554;-82
2021/10/18 07:39:59;;;;;;;9.63;6.37;;;;;;;3.91;93.85;96339.25;5060808;28;20200;-82
2021/10/18 07:42:26;;;;;;;9.27;6.53;;;;;;;4.01;93.69;96335.25;5068508;28;20210;-82
2021/10/18 07:44:53;;;;;;;13.33;7.30;;;;;;;4.10;93.89;96336.44;5048461;28;20703;-81
2021/10/18 07:47:18;;;;;;;8.13;7.00;;;;;;;4.11;93.66;96338.94;5074754;28;20183;-81
2021/10/18 07:49:43;;;;;;;9.53;7.03;;;;;;;4.24;93.82;96337.31;5053886;28;20204;-81
2021/10/18 07:52:12;;;;;;;9.70;6.87;;;;;;;4.29;93.10;96333.63;5055485;28;20216;-82
2021/10/18 07:54:41;;;;;;;10.40;6.33;;;;;;;4.46;93.06;96336.03;5073792;28;20180;-81
2021/10/18 07:57:07;;;;;;;9.70;7.77;;;;;;;4.49;93.35;96338.41;5061261;28;20177;-81
2021/10/18 07:59:32;;;;;;;8.40;6.87;;;;;;;4.54;93.27;96326.13;5054307;28;20208;-81
2021/10/18 08:01:58;;;;;;;9.83;6.50;;;;;;;4.70;93.75;96331.19;5041259;28;20185;-81
2021/10/18 08:04:23;;;;;;;7.67;6.37;;;;;;;4.75;93.80;96335.09;5069093;28;20193;-82
2021/10/18 08:06:48;;;;;;;9.70;7.03;;;;;;;4.81;93.08;96337.31;5057230;28;20179;-80
2021/10/18 08:09:14;;;;;;;10.33;6.90;;;;;;;4.90;92.78;96338.50;5060094;28;20212;-81
2021/10/18 08:11:40;;;;;;;8.37;6.00;;;;;;;4.96;92.90;96343.28;5073655;28;20707;-82
2021/10/18 08:14:05;;;;;;;7.37;6.27;;;;;;;4.98;92.68;96346.59;5073048;28;20543;-82
2021/10/18 08:16:31;;;;;;;8.40;6.80;;;;;;;5.04;92.57;96348.78;5061316;28;20227;-81
2021/10/18 08:18:57;;;;;;;8.20;7.33;;;;;;;5.02;92.27;96353.19;5056867;28;20208;-82
2021/10/18 08:21:22;;;;;;;9.33;7.10;;;;;;;5.19;92.37;96362.44;5057452;28;20188;-84
2021/10/18 08:23:48;;;;;;;7.87;6.90;;;;;;;5.23;92.21;96348.47;5073412;28;20215;-82
2021/10/18 08:26:13;;;;;;;8.20;6.97;;;;;;;5.28;92.42;96359.31;5064283;28;20230;-82
2021/10/18 08:28:38;;;;;;;7.53;6.40;;;;;;;5.27;92.62;96357.66;5062347;28;20215;-80
2021/10/18 08:31:04;;;;;;;7.63;6.83;;;;;;;5.37;92.40;96358.72;5073389;28;20522;-81
2021/10/18 08:33:29;;;;;;;9.13;6.60;;;;;;;5.49;91.98;96361.47;5056435;28;20214;-84
2021/10/18 08:35:55;;;;;;;10.47;7.53;;;;;;;5.50;91.97;96355.41;5059392;28;20641;-83
2021/10/18 08:38:46;;;;;;;8.87;7.30;;;;;;;5.60;91.65;96365.03;5073000;28;20217;-84
2021/10/18 08:41:18;;;;;;;9.00;7.40;;;;;;;5.63;91.74;96358.84;5072353;28;20173;-83
2021/10/18 08:46:21;;;;;;;8.03;6.77;;;;;;;5.98;91.86;96361.75;5072112;28;20187;-83
2021/10/18 08:48:49;;;;;;;8.30;7.03;;;;;;;6.09;90.70;96372.19;5072356;28;20275;-82
2021/10/18 08:51:15;;;;;;;8.87;7.50;;;;;;;6.13;90.35;96362.53;5068799;28;20242;-84
2021/10/18 08:53:40;;;;;;;9.07;7.07;;;;;;;6.18;90.04;96366.47;5053867;28;20556;-84
2021/10/18 08:56:06;;;;;;;9.10;6.93;;;;;;;6.16;90.24;96367.47;5056345;28;20196;-85
2021/10/18 08:58:31;;;;;;;9.23;6.73;;;;;;;6.34;91.10;96365.44;5074828;28;20574;-84
2021/10/18 09:00:56;;;;;;;8.53;7.07;;;;;;;6.50;90.93;96364.31;5062451;28;20592;-84
2021/10/18 09:03:31;;;;;;;9.03;7.30;;;;;;;6.53;90.10;96366.69;5064041;28;20193;-84
2021/10/18 09:06:15;;;;;;;9.70;7.17;;;;;;;6.50;90.20;96366.91;5061564;28;20277;-85
2021/10/18 09:08:50;;;;;;;10.00;7.87;;;;;;;6.70;89.86;96362.13;5069746;28;20246;-84
2021/10/18 09:11:17;;;;;;;9.17;7.10;;;;;;;6.70;89.95;96362.13;5051547;28;20553;-84
2021/10/18 09:13:56;;;;;;;10.13;7.60;;;;;;;6.86;89.82;96362.75;5073811;28;20196;-83
2021/10/18 09:16:28;;;;;;;10.10;7.50;;;;;;;6.90;89.68;96359.03;5047041;28;20173;-84
2021/10/18 09:19:02;;;;;;;8.90;7.67;;;;;;;7.06;89.82;96364.78;5075351;28;20196;-83
2021/10/18 09:21:29;;;;;;;10.53;7.97;;;;;;;7.13;87.83;96366.94;5062547;28;20263;-83
2021/10/18 09:23:55;;;;;;;9.47;8.50;;;;;;;7.16;88.17;96367.59;5042534;28;20700;-85
2021/10/18 09:26:22;;;;;;;10.13;7.43;;;;;;;7.19;88.57;96366.53;5076609;28;20203;-85
2021/10/18 09:28:52;;;;;;;8.10;7.13;;;;;;;7.28;87.11;96368.47;5056491;28;20253;-84
2021/10/18 09:31:18;;;;;;;8.70;7.17;;;;;;;7.25;87.56;96358.38;5057416;28;20262;-81
2021/10/18 09:33:48;;;;;;;9.07;7.37;;;;;;;7.25;87.25;96359.19;5041159;28;20225;-85
2021/10/18 09:36:18;;;;;;;10.07;7.90;;;;;;;7.28;88.14;96364.13;5071272;28;20684;-85
2021/10/18 09:38:43;;;;;;;9.57;7.63;;;;;;;7.56;87.54;96355.25;5058131;28;20373;-83
2021/10/18 09:41:09;;;;;;;11.20;8.43;;;;;;;7.64;87.23;96363.28;5036933;28;20177;-85
2021/10/18 09:43:40;;;;;;;10.73;9.10;;;;;;;7.55;87.24;96360.53;5043563;28;20283;-85
2021/10/18 09:46:18;;;;;;;11.70;8.50;;;;;;;7.78;86.82;96364.06;5074344;28;20710;-84
2021/10/18 10:53:31;;;;;;;11.90;8.80;;;;;;;8.94;84.11;96378.75;5064443;28;20275;-80
2021/10/18 10:55:59;;;;;;;11.27;8.40;;;;;;;9.07;84.13;96376.84;5068032;28;20208;-80
2021/10/18 10:58:32;;;;;;;10.57;8.77;;;;;;;9.15;83.31;96371.09;5069423;28;20276;-81
2021/10/18 11:00:58;;;;;;;11.07;8.90;;;;;;;9.19;82.61;96373.34;5047858;28;20651;-82
2021/10/18 11:03:23;;;;;;;12.90;8.93;;;;;;;9.04;82.26;96370.16;5061010;28;20254;-80
2021/10/18 11:06:03;;;;;;;9.57;8.10;;;;;;;9.27;82.76;96362.34;5060163;28;20188;-80
2021/10/18 11:08:37;;;;;;;11.77;8.90;;;;;;;9.44;82.95;96366.22;5066610;28;20200;-81
2021/10/18 11:11:10;;;;;;;10.77;8.63;;;;;;;9.45;82.27;96365.25;5068370;28;20253;-82
2021/10/18 11:13:52;;;;;;;14.53;8.87;;;;;;;9.60;82.66;96366.66;5066964;28;20177;-84
2021/10/18 11:16:19;;;;;;;11.33;9.00;;;;;;;9.67;82.29;96367.00;5079420;28;20604;-81
2021/10/18 11:18:49;;;;;;;10.23;8.20;;;;;;;9.79;81.03;96363.41;5053149;28;20209;-81
2021/10/18 11:21:23;;;;;;;11.30;8.00;;;;;;;9.80;81.09;96365.06;5051682;28;20181;-82
2021/10/18 11:23:59;;;;;;;9.80;7.73;;;;;;;9.89;81.33;96369.50;5068377;28;20204;-80
2021/10/18 11:26:26;;;;;;;9.13;8.17;;;;;;;9.94;79.52;96370.81;5059536;28;20194;-80
2021/10/18 11:28:57;;;;;;;11.97;8.87;;;;;;;9.98;80.36;96365.34;5065110;28;20200;-80
2021/10/18 11:31:31;;;;;;;10.97;8.50;;;;;;;10.07;78.63;96362.88;5055403;28;20640;-81
2021/10/18 11:34:11;;;;;;;9.43;7.83;;;;;;;10.17;79.79;96357.75;5055319;28;20253;-81
2021/10/18 11:36:40;;;;;;;10.43;8.17;;;;;;;10.35;79.21;96352.84;5061127;28;20271;-81
2021/10/18 11:39:11;;;;;;;9.73;8.63;;;;;;;10.31;79.68;96352.25;5053642;28;20205;-80
2021/10/18 11:41:58;;;;;;;11.53;9.40;;;;;;;10.27;79.29;96352.66;5071141;28;20207;-81
2021/10/18 11:44:48;;;;;;;13.70;10.43;;;;;;;10.13;79.89;96346.78;5064891;28;20672;-80
2021/10/18 11:47:24;;;;;;;12.20;10.30;;;;;;;10.01;80.21;96344.38;5088982;28;20185;-81
2021/10/18 11:50:08;;;;;;;16.07;11.47;;;;;;;9.98;79.86;96354.97;5080255;28;20208;-81
2021/10/18 11:52:34;;;;;;;12.13;9.60;;;;;;;9.97;80.76;96342.94;5080470;28;20272;-81
2021/10/18 11:54:59;;;;;;;12.17;10.07;;;;;;;10.03;79.87;96339.88;5083136;28;20656;-81
2021/10/18 11:57:25;;;;;;;11.90;9.43;;;;;;;10.16;79.50;96340.53;5049301;28;20199;-81
2021/10/18 11:59:50;;;;;;;10.57;9.10;;;;;;;10.30;79.56;96334.22;5066892;28;20542;-81
2021/10/18 12:02:25;;;;;;;15.40;12.20;;;;;;;10.10;80.45;96333.25;5083404;28;20189;-80
2021/10/18 12:04:58;;;;;;;18.03;13.07;;;;;;;10.35;79.89;96324.28;5047536;28;20204;-81
2021/10/18 12:07:46;;;;;;;9.67;8.40;;;;;;;10.64;79.28;96334.84;5054275;28;20188;-82
2021/10/18 12:10:22;;;;;;;13.97;9.00;;;;;;;10.66;79.09;96325.13;5046455;28;20741;-82
2021/10/18 12:13:12;;;;;;;8.67;7.50;;;;;;;10.78;78.30;96327.53;5055985;28;20551;-82
2021/10/18 12:15:48;;;;;;;10.00;7.37;;;;;;;10.91;78.61;96327.31;5086354;28;20192;-84
2021/10/18 12:18:21;;;;;;;9.83;8.20;;;;;;;11.09;77.74;96319.72;5057875;28;20225;-81
2021/10/18 12:20:49;;;;;;;9.17;8.07;;;;;;;11.21;77.46;96310.84;5048216;28;20255;-82
2021/10/18 12:23:29;;;;;;;9.53;8.17;;;;;;;11.22;77.60;96309.06;5067203;28;20200;-82
2021/10/18 12:26:00;;;;;;;8.37;7.47;;;;;;;11.39;77.10;96313.63;5042038;28;20199;-82
2021/10/18 12:28:47;;;;;;;8.67;7.23;;;;;;;11.50;76.07;96308.31;5071892;28;20229;-81
2021/10/18 12:31:37;;;;;;;11.57;7.93;;;;;;;11.50;75.75;96310.09;5053472;28;20221;-82
2021/10/18 12:34:18;;;;;;;10.07;8.13;;;;;;;11.50;75.43;96303.13;5028074;28;20259;-82
2021/10/18 12:36:53;;;;;;;11.27;7.83;;;;;;;11.39;75.46;96303.22;5072104;28;20184;-82
2021/10/18 12:39:56;;;;;;;12.63;8.10;;;;;;;11.41;75.23;96311.75;5073290;28;20487;-79
2021/10/18 12:42:24;;;;;;;11.23;7.77;;;;;;;11.09;75.64;96318.91;5076968;28;20181;-83
2021/10/18 12:44:51;;;;;;;10.20;8.03;;;;;;;10.93;75.71;96322.78;5062645;28;20204;-82